createdAt,value
2019-04-03T00:01:46.056Z,99632.33
2019-04-03T00:04:19.735Z,99628.53
2019-04-03T00:06:53.450Z,99623.98
2019-04-03T00:09:27.095Z,99625.75
2019-04-03T00:12:00.827Z,99626.67
2019-04-03T00:14:34.950Z,99623.15
2019-04-03T00:17:08.519Z,99601.09
2019-04-03T00:19:42.089Z,99601.30
2019-04-03T00:22:15.708Z,99604.36
2019-04-03T00:24:49.253Z,99615.52
2019-04-03T00:27:23.225Z,99623.48
2019-04-03T00:29:56.820Z,99618.50
2019-04-03T00:32:30.516Z,99627.00
2019-04-03T00:35:04.803Z,99634.02
2019-04-03T00:37:38.436Z,99632.91
2019-04-03T00:40:12.926Z,99623.92
2019-04-03T00:42:46.872Z,99618.66
2019-04-03T00:45:20.513Z,99615.94
2019-04-03T00:47:55.695Z,99621.84
2019-04-03T00:50:29.410Z,99618.61
2019-04-03T00:53:03.827Z,99621.95
2019-04-03T00:55:37.743Z,99620.37
2019-04-03T00:58:37.300Z,99614.10
2019-04-03T01:01:12.863Z,99613.73
2019-04-03T01:03:46.500Z,99612.50
2019-04-03T01:06:20.096Z,99610.17
2019-04-03T01:08:53.633Z,99607.06
2019-04-03T01:11:28.839Z,99609.93
2019-04-03T01:14:02.745Z,99607.58
2019-04-03T01:16:36.370Z,99612.16
2019-04-03T01:19:10.021Z,99611.98
2019-04-03T01:21:43.558Z,99614.34
2019-04-03T01:24:17.141Z,99619.37
2019-04-03T01:26:50.680Z,99624.23
2019-04-03T01:29:24.331Z,99616.51
2019-04-03T01:31:57.891Z,99616.80
2019-04-03T01:34:31.614Z,99612.64
2019-04-03T01:37:05.167Z,99608.20
2019-04-03T01:39:38.755Z,99602.75
2019-04-03T01:42:12.271Z,99603.39
2019-04-03T01:44:45.856Z,99600.42
2019-04-03T01:47:19.479Z,99597.74
2019-04-03T01:49:53.011Z,99590.45
2019-04-03T01:52:26.585Z,99593.32
2019-04-03T01:55:03.405Z,99596.73
2019-04-03T01:57:36.781Z,99589.15
2019-04-03T02:00:11.976Z,99595.99
2019-04-03T02:02:45.674Z,99588.61
2019-04-03T02:05:19.262Z,99593.41
2019-04-03T02:07:52.849Z,99592.41
2019-04-03T02:10:27.583Z,99587.31
2019-04-03T02:13:01.145Z,99586.66
2019-04-03T02:15:34.674Z,99581.58
2019-04-03T02:18:08.262Z,99584.70
2019-04-03T02:20:41.931Z,99578.05
2019-04-03T02:23:15.524Z,99580.30
2019-04-03T02:25:49.105Z,99576.30
2019-04-03T02:28:22.701Z,99572.70
2019-04-03T02:30:56.231Z,99564.47
2019-04-03T02:33:29.874Z,99559.78
2019-04-03T02:36:03.700Z,99562.09
2019-04-03T02:38:37.337Z,99554.23
2019-04-03T02:41:11.267Z,99544.05
2019-04-03T02:43:46.287Z,99545.16
2019-04-03T02:46:20.370Z,99543.52
2019-04-03T02:48:54.044Z,99534.19
2019-04-03T02:51:27.637Z,99533.33
2019-04-03T02:54:02.424Z,99527.25
2019-04-03T02:56:37.150Z,99527.81
2019-04-03T02:59:10.994Z,99525.77
2019-04-03T03:01:44.818Z,99521.89
2019-04-03T03:04:20.530Z,99521.16
2019-04-03T03:06:53.804Z,99522.45
2019-04-03T03:09:28.086Z,99522.99
2019-04-03T03:12:03.073Z,99519.94
2019-04-03T03:14:39.757Z,99519.11
2019-04-03T03:17:14.456Z,99513.00
2019-04-03T03:19:50.392Z,99513.87
2019-04-03T03:22:24.711Z,99511.14
2019-04-03T03:25:00.969Z,99505.87
2019-04-03T03:27:36.034Z,99503.38
2019-04-03T03:30:33.235Z,99503.77
2019-04-03T03:32:47.113Z,99499.19
2019-04-03T03:35:29.374Z,99498.91
2019-04-03T03:37:57.367Z,99497.08
2019-04-03T03:40:32.578Z,99497.42
2019-04-03T03:43:06.782Z,99498.08
2019-04-03T03:45:40.996Z,99500.47
2019-04-03T03:48:14.800Z,99498.88
2019-04-03T03:50:48.858Z,99492.77
2019-04-03T03:53:23.390Z,99492.77
2019-04-03T03:55:59.356Z,99497.48
2019-04-03T03:58:32.462Z,99496.55
2019-04-03T04:01:06.651Z,99495.34
2019-04-03T04:03:41.955Z,99493.86
2019-04-03T04:06:16.272Z,99491.27
2019-04-03T04:08:52.642Z,99488.30
2019-04-03T04:11:30.101Z,99489.39
2019-04-03T04:14:01.699Z,99489.88
2019-04-03T04:16:37.700Z,99492.45
2019-04-03T04:19:12.166Z,99491.88
2019-04-03T04:21:46.027Z,99494.18
2019-04-03T04:24:20.321Z,99489.20
2019-04-03T04:26:54.193Z,99488.62
2019-04-03T04:29:27.945Z,99491.94
2019-04-03T04:32:01.550Z,99494.44
2019-04-03T04:34:35.157Z,99489.18
2019-04-03T04:37:08.690Z,99487.89
2019-04-03T04:39:42.689Z,99497.36
2019-04-03T04:42:16.590Z,99493.88
2019-04-03T04:44:50.222Z,99500.70
2019-04-03T04:47:23.959Z,99498.61
2019-04-03T04:49:57.645Z,99496.91
2019-04-03T04:52:31.264Z,99502.85
2019-04-03T04:55:05.490Z,99502.80
2019-04-03T04:57:41.063Z,99503.51
2019-04-03T05:04:57.507Z,99504.31
2019-04-03T05:07:31.424Z,99505.40
2019-04-03T05:10:05.929Z,99505.96
2019-04-03T05:12:42.663Z,99504.31
2019-04-03T05:15:15.651Z,99505.76
2019-04-03T05:17:50.616Z,99514.81
2019-04-03T05:20:24.420Z,99518.59
2019-04-03T05:22:58.106Z,99520.16
2019-04-03T05:25:31.699Z,99520.36
2019-04-03T05:28:05.289Z,99520.94
2019-04-03T05:30:38.922Z,99517.31
2019-04-03T05:33:12.855Z,99521.95
2019-04-03T05:35:46.654Z,99524.11
2019-04-03T05:38:22.471Z,99521.52
2019-04-03T05:40:56.470Z,99519.66
2019-04-03T05:43:31.532Z,99515.87
2019-04-03T05:46:05.640Z,99519.66
2019-04-03T05:48:40.116Z,99526.49
2019-04-03T05:51:13.772Z,99529.89
2019-04-03T05:53:47.507Z,99540.71
2019-04-03T05:56:21.123Z,99535.06
2019-04-03T05:58:57.214Z,99529.36
2019-04-03T06:01:30.144Z,99534.09
2019-04-03T06:04:03.769Z,99529.64
2019-04-03T06:06:37.429Z,99527.97
2019-04-03T06:09:11.788Z,99534.34
2019-04-03T06:11:45.585Z,99537.02
2019-04-03T06:14:19.814Z,99546.61
2019-04-03T06:16:56.170Z,99545.88
2019-04-03T06:19:30.692Z,99548.66
2019-04-03T06:22:04.518Z,99548.94
2019-04-03T06:24:38.549Z,99547.08
2019-04-03T06:27:12.891Z,99557.92
2019-04-03T06:29:46.913Z,99560.13
2019-04-03T06:32:20.525Z,99560.89
2019-04-03T06:34:54.225Z,99566.89
2019-04-03T06:37:27.872Z,99567.15
2019-04-03T07:31:25.216Z,99585.28
2019-04-03T07:34:01.770Z,99588.72
2019-04-03T07:36:34.922Z,99589.75
2019-04-03T07:39:11.166Z,99597.22
2019-04-03T07:41:45.166Z,99600.39
2019-04-03T07:44:18.930Z,99590.59
2019-04-03T07:46:54.963Z,99595.20
2019-04-03T07:49:28.042Z,99594.28
2019-04-03T07:52:01.703Z,99596.02
2019-04-03T07:54:35.691Z,99603.36
2019-04-03T07:57:10.541Z,99605.37
2019-04-03T07:59:44.320Z,99600.75
2019-04-03T08:02:17.938Z,99606.81
2019-04-03T08:04:51.947Z,99604.48
2019-04-03T08:07:25.892Z,99601.36
2019-04-03T08:09:59.608Z,99600.55
2019-04-03T08:12:35.700Z,99602.38
2019-04-03T08:15:12.646Z,99601.94
2019-04-03T08:17:46.003Z,99596.06
2019-04-03T08:20:20.555Z,99599.78
2019-04-03T08:22:54.333Z,99604.23
2019-04-03T08:25:27.959Z,99603.73
2019-04-03T08:28:01.858Z,99603.47
2019-04-03T08:30:37.065Z,99609.93
2019-04-03T08:33:17.560Z,99610.85
2019-04-03T08:35:47.395Z,99606.48
2019-04-03T08:38:21.111Z,99616.14
2019-04-03T08:40:54.854Z,99609.14
2019-04-03T08:43:31.510Z,99612.50
2019-04-03T08:46:03.987Z,99619.13
2019-04-03T08:48:37.748Z,99620.09
2019-04-03T08:56:25.186Z,99608.91
2019-04-03T08:58:59.041Z,99615.47
2019-04-03T09:01:34.447Z,99605.37
2019-04-03T09:04:08.174Z,99607.95
2019-04-03T09:06:41.872Z,99611.19
2019-04-03T09:09:15.537Z,99609.14
2019-04-03T09:11:49.790Z,99606.06
2019-04-03T09:14:25.002Z,99607.45
2019-04-03T09:16:58.836Z,99609.83
2019-04-03T09:19:32.609Z,99609.63
2019-04-03T09:22:06.343Z,99603.99
2019-04-03T09:24:40.012Z,99604.05
2019-04-03T09:27:13.940Z,99603.78
2019-04-03T09:29:47.582Z,99606.69
2019-04-03T09:32:22.715Z,99600.87
2019-04-03T09:34:56.844Z,99607.03
2019-04-03T09:37:30.836Z,99596.45
2019-04-03T09:40:05.121Z,99592.52
2019-04-03T09:42:38.740Z,99596.47
2019-04-03T09:45:12.776Z,99597.29
2019-04-03T09:47:46.766Z,99593.72
2019-04-03T09:50:26.143Z,99589.72
2019-04-03T09:53:02.299Z,99589.72
2019-04-03T09:55:37.467Z,99581.03
2019-04-03T09:58:11.027Z,99579.95
2019-04-03T10:00:44.700Z,99580.86
2019-04-03T10:03:18.447Z,99576.28
2019-04-03T10:05:52.221Z,99573.87
2019-04-03T10:08:26.220Z,99563.45
2019-04-03T10:11:00.270Z,99567.87
2019-04-03T10:13:34.057Z,99567.76
2019-04-03T10:16:07.705Z,99564.13
2019-04-03T10:18:42.472Z,99561.36
2019-04-03T10:21:17.799Z,99563.33
2019-04-03T10:23:52.383Z,99558.87
2019-04-03T10:26:26.423Z,99550.13
2019-04-03T10:29:00.556Z,99561.34
2019-04-03T10:31:34.876Z,99550.00
2019-04-03T10:34:08.544Z,99539.33
2019-04-03T10:36:43.544Z,99538.72
2019-04-03T10:39:20.814Z,99539.77
2019-04-03T10:42:19.289Z,99543.69
2019-04-03T10:44:54.449Z,99536.45
2019-04-03T10:47:40.505Z,99517.67
2019-04-03T10:50:23.030Z,99520.95
2019-04-03T10:52:56.978Z,99516.70
2019-04-03T10:55:30.767Z,99514.09
2019-04-03T10:58:06.910Z,99517.61
2019-04-03T11:00:39.909Z,99514.34
2019-04-03T11:03:38.436Z,99517.56
2019-04-03T11:06:16.098Z,99516.07
2019-04-03T11:08:52.341Z,99512.86
2019-04-03T11:11:29.657Z,99502.78
2019-04-03T11:14:04.845Z,99501.64
2019-04-03T11:16:39.496Z,99508.35
2019-04-03T11:19:13.215Z,99500.78
2019-04-03T11:21:47.027Z,99503.39
2019-04-03T11:24:23.403Z,99504.96
2019-04-03T11:26:58.587Z,99503.74
2019-04-03T11:29:32.292Z,99506.22
2019-04-03T11:32:08.524Z,99501.27
2019-04-03T11:34:53.235Z,99503.19
2019-04-03T11:37:27.244Z,99492.77
2019-04-03T11:40:05.158Z,99494.89
2019-04-03T11:42:40.174Z,99490.16
2019-04-03T11:45:14.911Z,99485.91
2019-04-03T11:47:48.831Z,99488.52
2019-04-03T11:50:25.314Z,99490.14
2019-04-03T11:53:02.099Z,99483.42
2019-04-03T11:55:35.641Z,99482.59
2019-04-03T11:58:09.468Z,99483.08
2019-04-03T12:00:46.408Z,99485.56
2019-04-03T12:03:20.210Z,99473.61
2019-04-03T12:05:54.049Z,99475.02
2019-04-03T12:08:28.913Z,99475.60
2019-04-03T12:11:06.126Z,99473.72
2019-04-03T12:13:39.301Z,99464.03
2019-04-03T12:16:13.004Z,99461.91
2019-04-03T12:18:47.324Z,99460.23
2019-04-03T12:21:21.386Z,99459.76
2019-04-03T12:24:05.960Z,99463.67
2019-04-03T12:26:42.477Z,99455.28
2019-04-03T12:29:15.815Z,99458.82
2019-04-03T12:31:50.163Z,99459.98
2019-04-03T12:34:23.957Z,99452.20
2019-04-03T12:36:59.247Z,99451.37
2019-04-03T14:34:29.266Z,99356.91
2019-04-03T17:56:42.970Z,99283.98
2019-04-03T17:59:18.403Z,99286.11
2019-04-03T18:01:52.959Z,99271.88
2019-04-03T18:04:26.693Z,99271.19
2019-04-03T18:07:00.932Z,99263.27
2019-04-03T18:09:41.945Z,99259.73
2019-04-03T18:12:21.139Z,99261.37
2019-04-03T18:14:53.661Z,99262.91
2019-04-03T18:17:27.242Z,99251.34
2019-04-03T18:20:00.941Z,99240.22
2019-04-03T18:22:34.670Z,99238.80
2019-04-03T18:25:10.563Z,99235.27
2019-04-03T18:27:44.962Z,99240.58
2019-04-03T18:30:20.840Z,99232.55
2019-04-03T18:32:58.349Z,99231.94
2019-04-03T18:35:33.675Z,99225.51
2019-04-03T18:38:08.552Z,99230.80
2019-04-03T18:40:45.642Z,99225.31
2019-04-03T18:43:21.624Z,99210.16
2019-04-03T18:46:00.004Z,99209.34
2019-04-03T18:48:37.995Z,99213.10
2019-04-03T18:51:11.953Z,99209.73
2019-04-03T18:53:47.440Z,99214.22
2019-04-03T18:56:21.807Z,99210.41
2019-04-03T18:58:55.702Z,99216.20
2019-04-03T19:01:32.305Z,99207.55
2019-04-03T19:04:05.119Z,99207.94
2019-04-03T19:06:40.437Z,99202.16
2019-04-03T19:09:15.228Z,99195.81
2019-04-03T19:11:51.336Z,99186.88
2019-04-03T19:14:31.453Z,99180.94
2019-04-03T19:17:06.297Z,99169.56
2019-04-03T19:19:41.230Z,99168.08
2019-04-03T19:22:16.322Z,99163.14
2019-04-03T19:24:52.627Z,99158.67
2019-04-03T19:27:28.933Z,99151.77
2019-04-03T19:30:02.539Z,99156.81
2019-04-03T19:32:36.269Z,99157.31
2019-04-03T19:35:10.540Z,99149.45
2019-04-03T19:37:45.252Z,99143.48
2019-04-03T19:40:19.509Z,99159.33
2019-04-03T19:42:53.363Z,99158.44
2019-04-03T19:45:27.804Z,99154.16
2019-04-03T19:48:06.085Z,99149.89
2019-04-03T19:50:40.723Z,99136.50
2019-04-03T19:53:20.781Z,99147.41
2019-04-03T19:55:55.390Z,99150.30
2019-04-03T19:58:30.735Z,99155.81
2019-04-03T20:01:07.734Z,99154.56
2019-04-03T20:03:41.051Z,99149.34
2019-04-03T20:06:15.735Z,99122.81
2019-04-03T20:08:49.580Z,99120.86
2019-04-03T20:11:25.052Z,99125.78
2019-04-03T20:13:58.746Z,99105.05
2019-04-03T20:16:32.331Z,99077.52
2019-04-03T20:19:06.099Z,99083.91
2019-04-03T20:21:40.553Z,99095.93
2019-04-03T20:24:14.285Z,99090.70
2019-04-03T20:26:47.908Z,99088.27
2019-04-03T20:29:21.665Z,99077.58
2019-04-03T20:31:56.478Z,99073.47
2019-04-03T20:34:30.536Z,99085.52
2019-04-03T20:49:11.165Z,99049.23
2019-04-03T20:51:48.360Z,99025.97
2019-04-03T20:54:21.961Z,99032.87
2019-04-03T20:56:58.175Z,99031.72
2019-04-03T20:59:31.423Z,99015.77
2019-04-03T21:02:08.053Z,99017.08
2019-04-03T21:04:41.069Z,99023.67
2019-04-03T21:07:15.403Z,99023.67
2019-04-03T21:09:49.152Z,99012.67
2019-04-03T21:12:22.902Z,99021.16
2019-04-03T21:15:07.795Z,99027.02
2019-04-03T21:17:33.227Z,99018.99
2019-04-03T21:20:07.743Z,99016.06
2019-04-03T21:22:41.494Z,99024.02
2019-04-03T21:25:15.628Z,99030.88
2019-04-03T21:27:49.719Z,99033.80
2019-04-03T21:30:24.033Z,99036.21
2019-04-03T21:32:59.873Z,99046.49
2019-04-03T21:35:35.251Z,99039.88
2019-04-03T21:38:10.949Z,99038.59
2019-04-03T21:40:46.928Z,99070.41
2019-04-03T21:43:21.083Z,99140.25
2019-04-03T21:45:55.505Z,99171.66
2019-04-03T21:48:29.125Z,99213.27
2019-04-03T21:51:03.189Z,99255.70
2019-04-03T21:53:37.623Z,99284.05
2019-04-03T21:56:12.055Z,99288.25
2019-04-03T21:58:46.174Z,99305.05
2019-04-03T22:01:27.094Z,99334.96
2019-04-03T22:04:01.123Z,99338.02
2019-04-03T22:06:34.740Z,99381.67
2019-04-03T22:09:12.327Z,99359.55
2019-04-03T22:11:45.919Z,99365.53
2019-04-03T22:14:19.847Z,99369.50
2019-04-03T22:16:53.452Z,99360.13
2019-04-03T22:19:28.171Z,99347.26
2019-04-03T22:22:03.033Z,99341.98
2019-04-03T22:24:37.810Z,99334.08
2019-04-03T22:27:12.580Z,99312.83
2019-04-03T22:29:46.229Z,99312.34
2019-04-03T22:32:19.886Z,99306.98
2019-04-03T22:34:53.878Z,99303.69
2019-04-03T22:37:27.506Z,99290.61
2019-04-03T22:40:01.065Z,99279.50
2019-04-03T22:42:35.242Z,99269.17
2019-04-03T22:45:09.106Z,99265.39
2019-04-03T22:47:42.797Z,99265.58
2019-04-03T22:50:16.534Z,99254.61
2019-04-03T22:52:51.012Z,99254.22
2019-04-03T22:55:24.622Z,99248.17
2019-04-03T22:57:58.301Z,99225.02
2019-04-03T23:00:31.996Z,99195.67
2019-04-03T23:03:05.655Z,99181.37
2019-04-03T23:05:39.568Z,99182.05
2019-04-03T23:08:13.704Z,99184.03
2019-04-03T23:10:47.830Z,99181.27
2019-04-03T23:13:21.565Z,99169.66
2019-04-03T23:15:55.208Z,99172.82
2019-04-03T23:18:28.879Z,99172.40
2019-04-03T23:21:02.550Z,99173.20
2019-04-03T23:23:37.042Z,99174.48
2019-04-03T23:26:10.806Z,99178.59
2019-04-03T23:28:44.481Z,99173.01
2019-04-03T23:31:18.164Z,99180.44
2019-04-03T23:33:51.859Z,99190.72
2019-04-03T23:36:26.176Z,99194.23
2019-04-03T23:38:59.844Z,99192.41
2019-04-03T23:41:36.349Z,99181.03
2019-04-03T23:44:10.698Z,99188.05
2019-04-03T23:46:45.616Z,99193.34
2019-04-03T23:49:20.202Z,99196.25
2019-04-03T23:51:54.532Z,99189.89
2019-04-03T23:54:28.274Z,99195.44
2019-04-03T23:57:02.451Z,99198.18
2019-04-03T23:59:36.447Z,99199.89
